Aérodrome :
LOGIN :

S'inscrire | Disclaimer

   EN    FR    IT 

 










Légende :    VFR   VFR Marginal   IFR   IFR Intensif   IFR Très Intensif
Visi : 
Plafond : 
>= 8 km
>= 3000ft
5 à 8 km
1000 à 3000 ft
1500m à 5 km
500 à 1000 ft
800 à 1500m
200 à 500 ft
< 800m
< 200 ft
Symboles :   Orages  Brouillard  Fortes neiges  Fortes précipitations  Vent > 20 kt
SIGMETs :   Divers  Orages  Givrage  Turbulence  Onde Orograph.  Cendres Volcan.






- Altitude de l'aérodrome : 158 ft
- Code IATA : QAR


EHDL - Deelen Airbase

DERNIER METAR :
  • 231555Z AUTO 26010KT 170V320 9999 BKN039 BKN048 BKN059 20/11 Q1015 BLU

METARs EXPIRÉS :
  • 231525Z AUTO 22010KT 120V290 9999 FEW041 BKN097 20/10 Q1014 BLU
  • 231455Z AUTO 22009KT 150V270 9999 FEW035 SCT082 BKN087 20/11 Q1014 BLU
  • 231425Z AUTO 24010KT 9999 BKN078 BKN084 BKN090 20/12 Q1014 BLU
  • 231355Z AUTO 21011KT 120V290 9999 FEW037 SCT048 20/11 Q1014 BLU
  • 231325Z AUTO 22009KT 9999 BKN034 BKN039 BKN046 19/11 Q1014 BLU
  • 231255Z AUTO 19010KT 150V300 9999 SCT030 BKN035 BKN046 19/11 Q1014 BLU
  • 231225Z AUTO /////KT 9999 ////// 19/12 Q1014 BLU
  • 231155Z AUTO 22009KT 140V300 9999 ////// 17/11 Q1014 BLU
  • 231125Z AUTO 22009KT 160V300 9999 ////// 17/11 Q1015 BLU

Prévision TAF périmée.



MET'MAP, la Météo Aéronautique d'un coup d'oeil ! - Copyright ORBIFLY Décembre 2007 - Disclaimer

ORBIFLY MET'MAP TEAM :

Programmation & Développement : Alexandra Zaïnal
Sur une idée originale de : Baudouin d'Aumeries
Soutien technique & logistique : Manuel Goepfert
Assistance : Marc-Olivier Méhu




SOURCES & CREDITS :

   NOAA